Terminal Aerodrome Forecast
Issued by NWS

Current Version | Previous Version | Text Only | Print | Product List | Glossary On
Versions: 1 2 3 4 5 6 7 8 9 10 11 12 13 14 15 16 17 18 19 20 21 22 23 24 25 26 27
000 FTUS41 KOKX 271120 TAFGON TAF KGON 271120Z 2712/2812 32006KT P6SM BKN070 FM271400 31010KT P6SM BKN060 FM271700 30011G17KT P6SM BKN060 FM280000 33010G17KT P6SM BKN060 FM280400 34008KT P6SM BKN060=

USA.gov is the U.S. government's official web portal to all federal, state and local government web resources and services.